createdAt,value
2023-05-01T00:00:50.287Z,6.89
2023-05-01T00:06:00.940Z,6.84
2023-05-01T00:11:09.902Z,6.90
2023-05-01T00:16:16.472Z,6.78
2023-05-01T00:21:25.340Z,6.53
2023-05-01T00:26:31.655Z,6.45
2023-05-01T00:31:36.275Z,6.57
2023-05-01T00:36:41.122Z,6.71
2023-05-01T00:41:46.408Z,6.46
2023-05-01T00:46:51.225Z,6.44
2023-05-01T00:51:55.297Z,6.29
2023-05-01T00:57:00.637Z,6.45
2023-05-01T01:02:04.804Z,6.25
2023-05-01T01:07:13.140Z,6.21
2023-05-01T01:12:28.290Z,6.01
2023-05-01T01:17:37.832Z,6.04
2023-05-01T01:22:45.003Z,6.07
2023-05-01T01:28:26.726Z,5.76
2023-05-01T01:33:56.166Z,5.78
2023-05-01T01:39:07.800Z,5.70
2023-05-01T01:44:24.520Z,5.65
2023-05-01T01:49:32.531Z,5.77
2023-05-01T01:54:43.216Z,5.72
2023-05-01T01:59:49.631Z,5.72
2023-05-01T02:04:57.212Z,5.53
2023-05-01T02:10:03.998Z,5.57
2023-05-01T02:15:11.049Z,5.57
2023-05-01T02:20:20.484Z,5.63
2023-05-01T02:25:24.893Z,5.45
2023-05-01T02:30:28.952Z,5.49
2023-05-01T02:35:34.290Z,5.54
2023-05-01T02:40:40.472Z,5.52
2023-05-01T02:45:46.153Z,5.50
2023-05-01T02:50:53.133Z,5.56
2023-05-01T02:55:57.572Z,5.43
2023-05-01T03:01:01.841Z,5.52
2023-05-01T03:06:07.680Z,5.68
2023-05-01T03:17:05.061Z,5.54
2023-05-01T03:22:11.354Z,5.82
2023-05-01T03:27:15.640Z,5.98
2023-05-01T03:32:19.674Z,6.14
2023-05-01T03:37:27.096Z,6.29
2023-05-01T03:42:31.155Z,6.35
2023-05-01T03:47:41.250Z,6.52
2023-05-01T03:52:46.593Z,6.79
2023-05-01T03:57:50.936Z,7.15
2023-05-01T04:02:56.856Z,7.16
2023-05-01T04:08:04.539Z,7.17
2023-05-01T04:13:09.129Z,7.18
2023-05-01T04:18:13.099Z,7.48
2023-05-01T04:23:20.815Z,7.48
2023-05-01T04:28:26.649Z,7.43
2023-05-01T04:33:30.585Z,7.48
2023-05-01T04:38:37.226Z,7.84
2023-05-01T04:43:41.351Z,7.56
2023-05-01T04:48:46.133Z,7.78
2023-05-01T04:53:51.479Z,8.17
2023-05-01T04:59:01.676Z,8.30
2023-05-01T05:04:09.873Z,8.50
2023-05-01T05:09:19.974Z,9.02
2023-05-01T05:14:24.201Z,8.97
2023-05-01T05:19:28.326Z,8.98
2023-05-01T05:24:33.849Z,9.35
2023-05-01T05:29:37.783Z,9.80
2023-05-01T05:34:41.955Z,9.46
2023-05-01T05:39:47.884Z,9.38
2023-05-01T05:44:53.254Z,9.63
2023-05-01T05:49:57.674Z,10.41
2023-05-01T05:55:04.371Z,11.55
2023-05-01T06:00:11.181Z,12.56
2023-05-01T06:05:26.865Z,13.01
2023-05-01T06:10:32.370Z,13.64
2023-05-01T06:15:38.361Z,13.64
2023-05-01T06:20:42.771Z,12.86
2023-05-01T06:25:49.043Z,12.53
2023-05-01T06:30:54.797Z,12.20
2023-05-01T06:36:00.840Z,12.71
2023-05-01T06:41:07.260Z,13.38
2023-05-01T07:05:29.993Z,16.04
2023-05-01T07:10:34.112Z,16.93
2023-05-01T07:15:38.187Z,16.79
2023-05-01T07:20:43.656Z,15.08
2023-05-01T07:25:50.489Z,14.51
2023-05-01T07:30:57.538Z,15.93
2023-05-01T07:36:03.549Z,17.47
2023-05-01T07:41:07.695Z,17.64
2023-05-01T07:46:12.890Z,18.60
2023-05-01T07:51:19.471Z,17.65
2023-05-01T07:56:23.796Z,16.49
2023-05-01T08:01:27.733Z,16.82
2023-05-01T08:06:33.137Z,16.95
2023-05-01T08:11:37.118Z,17.52
2023-05-01T08:16:41.115Z,18.69
2023-05-01T08:21:46.643Z,18.98
2023-05-01T08:26:50.636Z,18.98
2023-05-01T08:31:54.641Z,20.68
2023-05-01T08:37:00.669Z,21.08
2023-05-01T08:42:04.963Z,19.41
2023-05-01T08:47:13.745Z,20.58
2023-05-01T08:52:21.867Z,21.93
2023-05-01T08:57:27.243Z,23.06
2023-05-01T09:02:35.780Z,23.40
2023-05-01T09:07:43.629Z,22.98
2023-05-01T09:12:54.985Z,21.38
2023-05-01T09:18:03.652Z,19.93
2023-05-01T09:23:09.384Z,19.09
2023-05-01T09:28:13.336Z,19.00
2023-05-01T09:33:18.224Z,18.16
2023-05-01T09:38:25.349Z,18.08
2023-05-01T09:43:30.225Z,17.80
2023-05-01T09:48:35.991Z,17.09
2023-05-01T09:53:42.286Z,15.90
2023-05-01T09:58:46.786Z,14.81
2023-05-01T10:03:55.619Z,14.27
2023-05-01T10:09:01.541Z,14.23
2023-05-01T10:14:09.876Z,13.89
2023-05-01T10:19:16.806Z,13.65
2023-05-01T10:24:22.348Z,13.43
2023-05-01T10:29:32.742Z,13.32
2023-05-01T10:34:41.348Z,13.13
2023-05-01T10:39:46.640Z,12.96
2023-05-01T10:44:50.587Z,12.50
2023-05-01T10:50:08.255Z,12.56
2023-05-01T10:55:35.218Z,12.52
2023-05-01T11:00:39.158Z,12.64
2023-05-01T11:06:09.171Z,13.32
2023-05-01T11:11:51.978Z,13.70
2023-05-01T11:16:55.928Z,13.81
2023-05-01T11:22:00.635Z,13.92
2023-05-01T11:27:06.302Z,14.05
2023-05-01T11:32:11.959Z,14.68
2023-05-01T11:37:17.835Z,14.69
2023-05-01T11:42:23.791Z,14.48
2023-05-01T11:47:33.097Z,14.65
2023-05-01T11:52:44.662Z,14.29
2023-05-01T11:57:52.005Z,14.23
2023-05-01T12:02:59.762Z,14.05
2023-05-01T12:08:14.917Z,13.78
2023-05-01T12:13:20.883Z,14.14
2023-05-01T12:18:25.234Z,14.35
2023-05-01T12:23:33.488Z,14.33
2023-05-01T12:28:38.819Z,14.19
2023-05-01T12:33:54.937Z,14.08
2023-05-01T12:39:04.568Z,14.70
2023-05-01T12:44:23.813Z,14.52
2023-05-01T12:49:28.609Z,14.75
2023-05-01T12:54:34.279Z,14.72
2023-05-01T12:59:41.010Z,15.03
2023-05-01T13:04:46.454Z,14.99
2023-05-01T13:09:54.569Z,15.28
2023-05-01T13:15:00.898Z,15.44
2023-05-01T13:20:06.132Z,15.80
2023-05-01T13:25:17.540Z,15.97
2023-05-01T13:30:32.933Z,16.26
2023-05-01T13:35:39.210Z,16.55
2023-05-01T13:40:43.095Z,16.40
2023-05-01T13:45:48.492Z,17.39
2023-05-01T13:50:52.459Z,18.34
2023-05-01T13:55:56.361Z,18.45
2023-05-01T14:01:02.057Z,19.12
2023-05-01T14:06:07.143Z,19.56
2023-05-01T14:11:11.882Z,18.32
2023-05-01T14:16:24.763Z,18.52
2023-05-01T14:21:29.173Z,19.23
2023-05-01T14:26:34.798Z,19.16
2023-05-01T14:31:41.418Z,19.17
2023-05-01T14:36:49.055Z,18.93
2023-05-01T14:41:53.223Z,18.86
2023-05-01T14:46:59.042Z,18.85
2023-05-01T14:52:03.013Z,18.70
2023-05-01T14:57:06.984Z,18.85
2023-05-01T15:02:12.365Z,18.98
2023-05-01T15:07:16.746Z,19.28
2023-05-01T15:12:20.912Z,19.05
2023-05-01T15:17:26.918Z,19.14
2023-05-01T15:22:31.340Z,19.13
2023-05-01T15:27:35.218Z,19.12
2023-05-01T15:32:40.627Z,19.28
2023-05-01T15:37:44.513Z,19.10
2023-05-01T15:42:48.532Z,18.30
2023-05-01T15:47:53.893Z,18.28
2023-05-01T15:52:58.488Z,17.22
2023-05-01T15:58:02.861Z,16.90
2023-05-01T16:03:09.058Z,16.38
2023-05-01T16:08:13.295Z,16.04
2023-05-01T16:13:17.257Z,15.64
2023-05-01T16:18:25.880Z,15.80
2023-05-01T16:23:32.086Z,15.89
2023-05-01T16:28:36.256Z,15.58
2023-05-01T16:33:41.512Z,15.49
2023-05-01T16:38:46.745Z,15.14
2023-05-01T16:43:51.467Z,14.99
2023-05-01T16:48:56.771Z,14.59
2023-05-01T16:54:00.801Z,14.23
2023-05-01T16:59:04.796Z,14.03
2023-05-01T17:04:10.285Z,13.78
2023-05-01T17:09:14.306Z,13.60
2023-05-01T17:14:31.683Z,13.29
2023-05-01T17:19:38.965Z,13.24
2023-05-01T17:24:42.736Z,13.09
2023-05-01T17:29:46.813Z,12.93
2023-05-01T17:34:52.207Z,12.77
2023-05-01T17:39:56.541Z,12.74
2023-05-01T17:45:00.728Z,12.53
2023-05-01T17:50:07.108Z,12.40
2023-05-01T17:55:11.357Z,12.17
2023-05-01T18:00:16.346Z,11.92
2023-05-01T18:05:22.594Z,11.88
2023-05-01T18:10:30.221Z,11.94
2023-05-01T18:15:34.204Z,11.91
2023-05-01T18:20:39.496Z,11.79
2023-05-01T18:25:43.364Z,11.61
2023-05-01T18:30:47.368Z,11.63
2023-05-01T18:35:52.768Z,11.74
2023-05-01T18:40:56.782Z,11.63
2023-05-01T18:46:00.741Z,11.44
2023-05-01T18:51:09.360Z,11.20
2023-05-01T18:56:13.619Z,11.08
2023-05-01T19:01:17.684Z,10.91
2023-05-01T19:06:23.044Z,10.77
2023-05-01T19:11:30.379Z,10.74
2023-05-01T19:16:34.293Z,10.59
2023-05-01T19:21:39.545Z,10.47
2023-05-01T19:26:43.502Z,10.37
2023-05-01T19:31:47.857Z,10.41
2023-05-01T19:36:56.639Z,10.46
2023-05-01T19:42:02.224Z,10.35
2023-05-01T19:47:06.242Z,10.33
2023-05-01T19:52:11.713Z,10.14
2023-05-01T19:57:16.508Z,10.10
2023-05-01T20:02:20.768Z,10.07
2023-05-01T20:07:26.615Z,10.08
2023-05-01T20:12:32.265Z,10.14
2023-05-01T20:17:36.372Z,10.17
2023-05-01T20:22:41.622Z,10.20
2023-05-01T20:27:45.550Z,10.21
2023-05-01T20:32:49.739Z,10.30
2023-05-01T20:37:55.059Z,10.35
2023-05-01T20:43:00.298Z,10.33
2023-05-01T20:48:04.705Z,10.41
2023-05-01T20:53:09.997Z,10.59
2023-05-01T20:58:14.037Z,10.70
2023-05-01T21:03:18.033Z,10.61
2023-05-01T21:08:23.450Z,10.59
2023-05-01T21:13:28.791Z,10.44
2023-05-01T21:18:35.011Z,10.43
2023-05-01T21:23:48.941Z,10.18
2023-05-01T21:28:52.890Z,10.13
2023-05-01T21:34:01.175Z,9.97
2023-05-01T21:39:06.604Z,9.83
2023-05-01T21:44:10.789Z,9.73
2023-05-01T21:49:17.008Z,9.76
2023-05-01T21:54:22.385Z,9.83
2023-05-01T21:59:36.091Z,9.74
2023-05-01T22:04:40.470Z,9.74
2023-05-01T22:09:45.746Z,9.75
2023-05-01T22:14:49.704Z,9.80
2023-05-01T22:19:55.607Z,9.83
2023-05-01T22:25:00.915Z,9.95
2023-05-01T22:30:05.637Z,9.90
2023-05-01T22:35:10.292Z,9.91
2023-05-01T22:40:17.559Z,9.83
2023-05-01T22:45:21.509Z,9.89
2023-05-01T22:50:25.437Z,9.77
2023-05-01T22:55:30.798Z,9.92
2023-05-01T23:00:34.767Z,9.58
2023-05-01T23:05:38.824Z,9.56
2023-05-01T23:10:44.168Z,9.56
2023-05-01T23:15:50.060Z,9.56
2023-05-01T23:20:55.692Z,9.74
2023-05-01T23:26:01.066Z,9.76
2023-05-01T23:31:05.415Z,9.46
2023-05-01T23:36:12.495Z,9.50
2023-05-01T23:41:17.830Z,9.17
2023-05-01T23:46:21.746Z,8.80
2023-05-01T23:51:27.136Z,8.65
2023-05-01T23:56:32.819Z,8.61
